sensor_id;sensor_type;location;lat;lon;timestamp;pressure;altitude;pressure_sealevel;temperature;humidity
47280;BME280;34064;44.942;0.008;2022-07-17T00:00:53;98720.69;;;27.27;32.39
47280;BME280;34064;44.942;0.008;2022-07-17T00:03:19;98719.03;;;27.26;32.59
47280;BME280;34064;44.942;0.008;2022-07-17T00:05:46;98721.16;;;27.24;32.54
47280;BME280;34064;44.942;0.008;2022-07-17T00:08:12;98717.22;;;27.20;32.62
47280;BME280;34064;44.942;0.008;2022-07-17T00:10:41;98708.44;;;27.18;32.77
47280;BME280;34064;44.942;0.008;2022-07-17T00:13:09;98711.63;;;27.15;32.86
47280;BME280;34064;44.942;0.008;2022-07-17T00:15:36;98712.06;;;27.12;32.88
47280;BME280;34064;44.942;0.008;2022-07-17T00:18:02;98711.47;;;27.09;32.61
47280;BME280;34064;44.942;0.008;2022-07-17T00:20:30;98703.16;;;27.04;32.95
47280;BME280;34064;44.942;0.008;2022-07-17T00:22:57;98705.72;;;26.99;32.99
47280;BME280;34064;44.942;0.008;2022-07-17T00:25:24;98706.63;;;26.93;33.03
47280;BME280;34064;44.942;0.008;2022-07-17T00:27:51;98695.97;;;26.91;33.04
47280;BME280;34064;44.942;0.008;2022-07-17T00:30:18;98701.25;;;26.86;33.07
47280;BME280;34064;44.942;0.008;2022-07-17T00:32:45;98699.81;;;26.84;33.30
47280;BME280;34064;44.942;0.008;2022-07-17T00:35:12;98697.31;;;26.82;33.43
47280;BME280;34064;44.942;0.008;2022-07-17T00:37:42;98705.25;;;26.84;33.39
47280;BME280;34064;44.942;0.008;2022-07-17T00:40:12;98702.16;;;26.80;33.49
47280;BME280;34064;44.942;0.008;2022-07-17T00:42:40;98696.91;;;26.78;33.26
47280;BME280;34064;44.942;0.008;2022-07-17T00:45:08;98702.81;;;26.75;33.28
47280;BME280;34064;44.942;0.008;2022-07-17T00:47:55;98696.50;;;26.75;33.52
47280;BME280;34064;44.942;0.008;2022-07-17T00:50:24;98699.91;;;26.70;33.46
47280;BME280;34064;44.942;0.008;2022-07-17T00:52:51;98691.16;;;26.68;33.66
47280;BME280;34064;44.942;0.008;2022-07-17T00:55:18;98695.59;;;26.62;33.39
47280;BME280;34064;44.942;0.008;2022-07-17T00:57:47;98697.34;;;26.57;33.48
47280;BME280;34064;44.942;0.008;2022-07-17T01:00:15;98696.34;;;26.51;33.83
47280;BME280;34064;44.942;0.008;2022-07-17T01:02:46;98701.41;;;26.47;34.07
47280;BME280;34064;44.942;0.008;2022-07-17T01:05:13;98693.84;;;26.50;33.86
47280;BME280;34064;44.942;0.008;2022-07-17T01:07:40;98698.50;;;26.42;34.25
47280;BME280;34064;44.942;0.008;2022-07-17T01:10:07;98696.91;;;26.35;34.27
47280;BME280;34064;44.942;0.008;2022-07-17T01:12:34;98695.91;;;26.29;34.25
47280;BME280;34064;44.942;0.008;2022-07-17T01:15:01;98702.63;;;26.26;34.38
47280;BME280;34064;44.942;0.008;2022-07-17T01:17:29;98698.25;;;26.25;34.22
47280;BME280;34064;44.942;0.008;2022-07-17T01:19:56;98697.63;;;26.23;34.27
47280;BME280;34064;44.942;0.008;2022-07-17T01:22:22;98699.34;;;26.18;34.77
47280;BME280;34064;44.942;0.008;2022-07-17T01:24:48;98698.59;;;26.10;34.98
47280;BME280;34064;44.942;0.008;2022-07-17T01:27:16;98699.41;;;26.04;35.33
47280;BME280;34064;44.942;0.008;2022-07-17T01:29:42;98706.56;;;25.98;35.36
47280;BME280;34064;44.942;0.008;2022-07-17T01:32:09;98707.69;;;25.91;35.64
47280;BME280;34064;44.942;0.008;2022-07-17T01:34:35;98695.13;;;25.90;35.24
47280;BME280;34064;44.942;0.008;2022-07-17T01:37:01;98705.66;;;25.79;35.73
47280;BME280;34064;44.942;0.008;2022-07-17T01:39:28;98704.88;;;25.72;35.84
47280;BME280;34064;44.942;0.008;2022-07-17T01:42:13;98710.75;;;25.69;36.03
47280;BME280;34064;44.942;0.008;2022-07-17T01:44:39;98708.53;;;25.59;36.52
47280;BME280;34064;44.942;0.008;2022-07-17T01:47:05;98709.59;;;25.51;36.73
47280;BME280;34064;44.942;0.008;2022-07-17T01:49:32;98707.13;;;25.43;36.97
47280;BME280;34064;44.942;0.008;2022-07-17T01:51:58;98711.28;;;25.39;37.33
47280;BME280;34064;44.942;0.008;2022-07-17T01:54:29;98707.94;;;25.37;37.44
47280;BME280;34064;44.942;0.008;2022-07-17T01:56:56;98713.84;;;25.34;37.17
47280;BME280;34064;44.942;0.008;2022-07-17T01:59:22;98715.75;;;25.27;37.35
47280;BME280;34064;44.942;0.008;2022-07-17T02:01:49;98714.09;;;25.19;37.78
47280;BME280;34064;44.942;0.008;2022-07-17T02:04:15;98718.28;;;25.15;37.72
47280;BME280;34064;44.942;0.008;2022-07-17T02:06:41;98718.50;;;25.13;37.52
47280;BME280;34064;44.942;0.008;2022-07-17T02:09:08;98726.06;;;25.04;37.78
47280;BME280;34064;44.942;0.008;2022-07-17T02:11:34;98727.75;;;24.99;38.11
47280;BME280;34064;44.942;0.008;2022-07-17T02:14:00;98740.72;;;24.97;38.22
47280;BME280;34064;44.942;0.008;2022-07-17T02:16:27;98737.38;;;24.88;38.14
47280;BME280;34064;44.942;0.008;2022-07-17T02:18:53;98741.56;;;24.90;38.08
47280;BME280;34064;44.942;0.008;2022-07-17T02:21:19;98729.66;;;24.91;38.20
47280;BME280;34064;44.942;0.008;2022-07-17T02:23:46;98734.91;;;24.86;38.05
47280;BME280;34064;44.942;0.008;2022-07-17T02:26:12;98730.28;;;24.87;38.21
47280;BME280;34064;44.942;0.008;2022-07-17T02:28:39;98734.91;;;24.86;38.21
47280;BME280;34064;44.942;0.008;2022-07-17T02:31:05;98727.78;;;24.85;38.29
47280;BME280;34064;44.942;0.008;2022-07-17T02:33:32;98724.44;;;24.83;38.24
47280;BME280;34064;44.942;0.008;2022-07-17T02:35:58;98729.25;;;24.81;38.25
47280;BME280;34064;44.942;0.008;2022-07-17T02:38:26;98727.78;;;24.79;38.22
47280;BME280;34064;44.942;0.008;2022-07-17T02:40:52;98731.38;;;24.79;37.89
47280;BME280;34064;44.942;0.008;2022-07-17T02:43:18;98721.53;;;24.78;38.08
47280;BME280;34064;44.942;0.008;2022-07-17T02:45:45;98717.34;;;24.75;37.98
47280;BME280;34064;44.942;0.008;2022-07-17T02:48:11;98722.38;;;24.72;38.00
47280;BME280;34064;44.942;0.008;2022-07-17T02:50:37;98718.81;;;24.65;38.43
47280;BME280;34064;44.942;0.008;2022-07-17T02:53:04;98722.78;;;24.62;38.53
47280;BME280;34064;44.942;0.008;2022-07-17T02:55:30;98727.81;;;24.58;38.49
47280;BME280;34064;44.942;0.008;2022-07-17T02:57:56;98723.63;;;24.56;38.70
47280;BME280;34064;44.942;0.008;2022-07-17T03:00:23;98715.69;;;24.48;38.78
47280;BME280;34064;44.942;0.008;2022-07-17T03:02:49;98726.13;;;24.37;39.04
47280;BME280;34064;44.942;0.008;2022-07-17T03:05:16;98727.81;;;24.25;39.14
47280;BME280;34064;44.942;0.008;2022-07-17T03:07:43;98728.66;;;24.12;39.75
47280;BME280;34064;44.942;0.008;2022-07-17T03:10:11;98726.31;;;24.02;39.57
47280;BME280;34064;44.942;0.008;2022-07-17T03:12:38;98734.44;;;23.95;39.93
47280;BME280;34064;44.942;0.008;2022-07-17T03:15:05;98731.09;;;23.93;39.96
47280;BME280;34064;44.942;0.008;2022-07-17T03:17:31;98735.25;;;23.89;39.70
47280;BME280;34064;44.942;0.008;2022-07-17T03:19:59;98728.56;;;23.78;40.78
47280;BME280;34064;44.942;0.008;2022-07-17T03:22:26;98739.00;;;23.75;40.41
47280;BME280;34064;44.942;0.008;2022-07-17T03:24:52;98728.53;;;23.72;40.44
47280;BME280;34064;44.942;0.008;2022-07-17T03:27:19;98740.22;;;23.65;40.42
47280;BME280;34064;44.942;0.008;2022-07-17T03:29:45;98746.88;;;23.56;40.67
47280;BME280;34064;44.942;0.008;2022-07-17T03:32:11;98738.88;;;23.48;41.06
47280;BME280;34064;44.942;0.008;2022-07-17T03:34:38;98740.13;;;23.45;40.82
47280;BME280;34064;44.942;0.008;2022-07-17T03:37:05;98738.88;;;23.41;41.19
47280;BME280;34064;44.942;0.008;2022-07-17T03:39:32;98736.78;;;23.36;40.96
47280;BME280;34064;44.942;0.008;2022-07-17T03:41:59;98740.91;;;23.32;41.03
47280;BME280;34064;44.942;0.008;2022-07-17T03:44:25;98737.78;;;23.29;41.41
47280;BME280;34064;44.942;0.008;2022-07-17T03:46:51;98734.66;;;23.25;41.41
47280;BME280;34064;44.942;0.008;2022-07-17T03:49:18;98738.78;;;23.21;41.64
47280;BME280;34064;44.942;0.008;2022-07-17T03:51:44;98733.38;;;23.21;41.35
47280;BME280;34064;44.942;0.008;2022-07-17T03:54:11;98735.19;;;23.14;41.75
47280;BME280;34064;44.942;0.008;2022-07-17T03:56:37;98730.78;;;23.13;41.53
47280;BME280;34064;44.942;0.008;2022-07-17T03:59:03;98730.16;;;23.11;41.37
47280;BME280;34064;44.942;0.008;2022-07-17T04:01:30;98730.31;;;23.02;41.80
47280;BME280;34064;44.942;0.008;2022-07-17T04:03:56;98722.03;;;23.04;41.92
47280;BME280;34064;44.942;0.008;2022-07-17T04:06:22;98725.53;;;23.04;41.74
47280;BME280;34064;44.942;0.008;2022-07-17T04:08:49;98718.44;;;23.03;41.46
47280;BME280;34064;44.942;0.008;2022-07-17T04:11:15;98724.47;;;22.99;41.90
47280;BME280;34064;44.942;0.008;2022-07-17T04:13:41;98716.13;;;23.00;41.61
47280;BME280;34064;44.942;0.008;2022-07-17T04:16:08;98717.00;;;23.01;41.22
47280;BME280;34064;44.942;0.008;2022-07-17T04:18:35;98716.34;;;22.99;41.44
47280;BME280;34064;44.942;0.008;2022-07-17T04:21:04;98709.06;;;22.99;41.52
47280;BME280;34064;44.942;0.008;2022-07-17T04:23:31;98711.97;;;22.98;41.40
47280;BME280;34064;44.942;0.008;2022-07-17T04:25:57;98716.75;;;22.96;41.63
47280;BME280;34064;44.942;0.008;2022-07-17T04:28:24;98718.19;;;22.92;41.53
47280;BME280;34064;44.942;0.008;2022-07-17T04:30:51;98717.75;;;22.88;41.87
47280;BME280;34064;44.942;0.008;2022-07-17T04:33:17;98723.78;;;22.83;41.99
47280;BME280;34064;44.942;0.008;2022-07-17T04:35:44;98731.84;;;22.77;42.32
47280;BME280;34064;44.942;0.008;2022-07-17T04:38:11;98728.09;;;22.78;42.23
47280;BME280;34064;44.942;0.008;2022-07-17T04:40:38;98730.56;;;22.72;42.47
47280;BME280;34064;44.942;0.008;2022-07-17T04:43:05;98727.22;;;22.70;42.25
47280;BME280;34064;44.942;0.008;2022-07-17T04:45:35;98730.09;;;22.62;42.94
47280;BME280;34064;44.942;0.008;2022-07-17T04:48:04;98732.34;;;22.58;42.71
47280;BME280;34064;44.942;0.008;2022-07-17T04:50:33;98742.09;;;22.53;43.02
47280;BME280;34064;44.942;0.008;2022-07-17T04:53:01;98738.09;;;22.49;43.05
47280;BME280;34064;44.942;0.008;2022-07-17T04:55:28;98742.06;;;22.46;43.08
47280;BME280;34064;44.942;0.008;2022-07-17T04:57:56;98745.56;;;22.47;43.01
47280;BME280;34064;44.942;0.008;2022-07-17T05:00:24;98740.00;;;22.48;43.22
47280;BME280;34064;44.942;0.008;2022-07-17T05:02:52;98744.94;;;22.44;43.72
47280;BME280;34064;44.942;0.008;2022-07-17T05:05:22;98737.41;;;22.40;43.75
47280;BME280;34064;44.942;0.008;2022-07-17T05:07:51;98743.47;;;22.42;43.54
47280;BME280;34064;44.942;0.008;2022-07-17T05:10:19;98736.81;;;22.44;43.49
47280;BME280;34064;44.942;0.008;2022-07-17T05:12:50;98737.56;;;22.38;43.99
47280;BME280;34064;44.942;0.008;2022-07-17T05:15:19;98746.94;;;22.36;43.84
47280;BME280;34064;44.942;0.008;2022-07-17T05:17:48;98749.09;;;22.40;44.09
47280;BME280;34064;44.942;0.008;2022-07-17T05:20:17;98740.56;;;22.43;43.91
47280;BME280;34064;44.942;0.008;2022-07-17T05:22:47;98734.75;;;22.47;43.97
47280;BME280;34064;44.942;0.008;2022-07-17T05:25:15;98739.56;;;22.51;43.89
47280;BME280;34064;44.942;0.008;2022-07-17T05:27:44;98738.75;;;22.51;43.75
47280;BME280;34064;44.942;0.008;2022-07-17T05:30:13;98736.88;;;22.51;44.21
47280;BME280;34064;44.942;0.008;2022-07-17T05:32:42;98736.09;;;22.57;44.17
47280;BME280;34064;44.942;0.008;2022-07-17T05:35:12;98737.56;;;22.60;44.22
47280;BME280;34064;44.942;0.008;2022-07-17T05:37:39;98741.75;;;22.63;43.98
47280;BME280;34064;44.942;0.008;2022-07-17T05:40:06;98738.00;;;22.64;44.15
47280;BME280;34064;44.942;0.008;2022-07-17T05:42:34;98742.19;;;22.66;44.39
47280;BME280;34064;44.942;0.008;2022-07-17T05:45:02;98735.75;;;22.67;44.25
47280;BME280;34064;44.942;0.008;2022-07-17T05:47:28;98746.19;;;22.70;44.27
47280;BME280;34064;44.942;0.008;2022-07-17T05:49:55;98741.66;;;22.78;44.48
47280;BME280;34064;44.942;0.008;2022-07-17T05:52:21;98746.25;;;22.84;44.22
47280;BME280;34064;44.942;0.008;2022-07-17T05:54:49;98742.13;;;22.88;44.33
47280;BME280;34064;44.942;0.008;2022-07-17T05:57:17;98749.44;;;22.94;44.44
47280;BME280;34064;44.942;0.008;2022-07-17T05:59:45;98751.34;;;23.00;44.43
47280;BME280;34064;44.942;0.008;2022-07-17T06:02:13;98744.13;;;23.08;44.14
47280;BME280;34064;44.942;0.008;2022-07-17T06:04:41;98743.09;;;23.15;44.26
47280;BME280;34064;44.942;0.008;2022-07-17T06:07:10;98742.13;;;23.23;43.83
47280;BME280;34064;44.942;0.008;2022-07-17T06:09:39;98741.31;;;23.29;43.40
47280;BME280;34064;44.942;0.008;2022-07-17T06:12:08;98732.19;;;23.37;43.17
47280;BME280;34064;44.942;0.008;2022-07-17T06:14:35;98733.25;;;23.43;42.83
47280;BME280;34064;44.942;0.008;2022-07-17T06:17:02;98723.91;;;23.52;42.72
47280;BME280;34064;44.942;0.008;2022-07-17T06:19:28;98727.03;;;23.56;42.70
47280;BME280;34064;44.942;0.008;2022-07-17T06:21:54;98728.53;;;23.65;42.09
47280;BME280;34064;44.942;0.008;2022-07-17T06:24:23;98726.88;;;23.71;42.09
47280;BME280;34064;44.942;0.008;2022-07-17T06:26:52;98716.03;;;23.77;42.15
47280;BME280;34064;44.942;0.008;2022-07-17T06:29:21;98713.13;;;23.86;42.07
47280;BME280;34064;44.942;0.008;2022-07-17T06:31:49;98712.31;;;23.92;42.08
47280;BME280;34064;44.942;0.008;2022-07-17T06:34:18;98710.28;;;24.01;41.87
47280;BME280;34064;44.942;0.008;2022-07-17T06:36:47;98708.63;;;24.13;41.78
47280;BME280;34064;44.942;0.008;2022-07-17T06:39:15;98703.16;;;24.20;41.58
47280;BME280;34064;44.942;0.008;2022-07-17T06:41:45;98702.78;;;24.29;41.49
47280;BME280;34064;44.942;0.008;2022-07-17T06:44:17;98703.78;;;24.42;41.26
47280;BME280;34064;44.942;0.008;2022-07-17T06:46:46;98707.34;;;24.49;41.05
47280;BME280;34064;44.942;0.008;2022-07-17T06:49:18;98711.09;;;24.55;41.08
47280;BME280;34064;44.942;0.008;2022-07-17T06:51:49;98705.22;;;24.65;40.86
47280;BME280;34064;44.942;0.008;2022-07-17T06:54:18;98700.22;;;24.75;40.42
47280;BME280;34064;44.942;0.008;2022-07-17T06:56:50;98692.47;;;24.85;40.26
47280;BME280;34064;44.942;0.008;2022-07-17T06:59:20;98689.09;;;24.97;39.93
47280;BME280;34064;44.942;0.008;2022-07-17T07:01:49;98681.75;;;25.04;39.98
47280;BME280;34064;44.942;0.008;2022-07-17T07:04:18;98683.81;;;25.15;39.86
47280;BME280;34064;44.942;0.008;2022-07-17T07:06:48;98682.06;;;25.28;39.68
47280;BME280;34064;44.942;0.008;2022-07-17T07:09:20;98681.22;;;25.41;39.95
47280;BME280;34064;44.942;0.008;2022-07-17T07:11:51;98679.84;;;25.57;39.50
47280;BME280;34064;44.942;0.008;2022-07-17T07:14:22;98677.94;;;25.64;38.77
47280;BME280;34064;44.942;0.008;2022-07-17T07:16:54;98678.47;;;25.79;38.10
47280;BME280;34064;44.942;0.008;2022-07-17T07:19:22;98682.34;;;25.90;37.89
47280;BME280;34064;44.942;0.008;2022-07-17T07:21:48;98677.88;;;26.03;37.38
47280;BME280;34064;44.942;0.008;2022-07-17T07:24:17;98677.41;;;26.12;37.31
47280;BME280;34064;44.942;0.008;2022-07-17T07:26:46;98680.91;;;26.20;37.36
47280;BME280;34064;44.942;0.008;2022-07-17T07:29:13;98676.41;;;26.32;37.10
47280;BME280;34064;44.942;0.008;2022-07-17T07:31:41;98676.28;;;26.45;36.70
47280;BME280;34064;44.942;0.008;2022-07-17T07:34:11;98676.59;;;26.56;36.57
47280;BME280;34064;44.942;0.008;2022-07-17T07:36:38;98668.28;;;26.69;36.74
47280;BME280;34064;44.942;0.008;2022-07-17T07:39:06;98657.88;;;26.85;36.58
47280;BME280;34064;44.942;0.008;2022-07-17T07:41:38;98656.03;;;26.97;35.88
47280;BME280;34064;44.942;0.008;2022-07-17T07:44:05;98654.47;;;27.08;35.86
47280;BME280;34064;44.942;0.008;2022-07-17T07:46:31;98657.69;;;27.17;35.24
47280;BME280;34064;44.942;0.008;2022-07-17T07:48:59;98657.06;;;27.33;35.03
47280;BME280;34064;44.942;0.008;2022-07-17T07:51:29;98646.28;;;27.38;34.81
47280;BME280;34064;44.942;0.008;2022-07-17T07:53:56;98652.06;;;27.49;34.85
47280;BME280;34064;44.942;0.008;2022-07-17T07:56:22;98638.81;;;27.64;34.76
47280;BME280;34064;44.942;0.008;2022-07-17T07:58:49;98642.06;;;27.73;34.29
47280;BME280;34064;44.942;0.008;2022-07-17T08:01:20;98641.47;;;27.83;34.33
47280;BME280;34064;44.942;0.008;2022-07-17T08:03:50;98632.47;;;27.94;33.83
47280;BME280;34064;44.942;0.008;2022-07-17T08:06:19;98629.56;;;28.08;33.78
47280;BME280;34064;44.942;0.008;2022-07-17T08:08:47;98619.59;;;28.25;33.74
47280;BME280;34064;44.942;0.008;2022-07-17T08:11:13;98617.09;;;28.36;33.42
47280;BME280;34064;44.942;0.008;2022-07-17T08:13:42;98615.19;;;28.48;33.28
47280;BME280;34064;44.942;0.008;2022-07-17T08:16:11;98606.47;;;28.63;33.39
47280;BME280;34064;44.942;0.008;2022-07-17T08:18:40;98601.72;;;28.82;33.17
47280;BME280;34064;44.942;0.008;2022-07-17T08:21:08;98592.75;;;28.99;33.24
47280;BME280;34064;44.942;0.008;2022-07-17T08:23:36;98593.06;;;29.14;32.38
47280;BME280;34064;44.942;0.008;2022-07-17T08:26:04;98587.22;;;29.22;32.07
47280;BME280;34064;44.942;0.008;2022-07-17T08:28:31;98590.16;;;29.33;32.11
47280;BME280;34064;44.942;0.008;2022-07-17T08:30:57;98579.81;;;29.52;31.88
47280;BME280;34064;44.942;0.008;2022-07-17T08:33:26;98578.19;;;29.68;31.77
47280;BME280;34064;44.942;0.008;2022-07-17T08:35:55;98576.41;;;29.79;31.42
47280;BME280;34064;44.942;0.008;2022-07-17T08:38:24;98587.28;;;29.91;30.95
47280;BME280;34064;44.942;0.008;2022-07-17T08:40:52;98575.53;;;30.07;30.68
47280;BME280;34064;44.942;0.008;2022-07-17T08:43:20;98566.19;;;30.25;30.19
47280;BME280;34064;44.942;0.008;2022-07-17T08:45:47;98569.47;;;30.44;30.36
47280;BME280;34064;44.942;0.008;2022-07-17T08:48:16;98562.63;;;30.64;30.14
47280;BME280;34064;44.942;0.008;2022-07-17T08:50:44;98563.06;;;30.78;29.79
47280;BME280;34064;44.942;0.008;2022-07-17T08:53:10;98571.44;;;30.88;29.46
47280;BME280;34064;44.942;0.008;2022-07-17T08:55:37;98561.69;;;31.03;29.49
47280;BME280;34064;44.942;0.008;2022-07-17T08:58:03;98560.56;;;31.21;29.05
47280;BME280;34064;44.942;0.008;2022-07-17T09:00:33;98555.16;;;31.31;28.66
47280;BME280;34064;44.942;0.008;2022-07-17T09:03:03;98564.91;;;31.49;28.64
47280;BME280;34064;44.942;0.008;2022-07-17T09:05:36;98557.56;;;31.55;28.52
47280;BME280;34064;44.942;0.008;2022-07-17T09:08:05;98561.53;;;31.69;27.84
47280;BME280;34064;44.942;0.008;2022-07-17T09:10:36;98560.53;;;31.81;27.64
47280;BME280;34064;44.942;0.008;2022-07-17T09:13:18;98564.44;;;31.85;27.43
47280;BME280;34064;44.942;0.008;2022-07-17T09:15:46;98567.75;;;31.92;27.76
47280;BME280;34064;44.942;0.008;2022-07-17T09:18:13;98550.84;;;32.05;27.64
47280;BME280;34064;44.942;0.008;2022-07-17T09:20:49;98564.09;;;32.19;27.44
47280;BME280;34064;44.942;0.008;2022-07-17T09:23:17;98555.38;;;32.27;27.40
47280;BME280;34064;44.942;0.008;2022-07-17T09:25:50;98562.28;;;32.35;27.36
47280;BME280;34064;44.942;0.008;2022-07-17T09:28:17;98551.88;;;32.42;27.20
47280;BME280;34064;44.942;0.008;2022-07-17T09:30:48;98556.59;;;32.52;26.80
47280;BME280;34064;44.942;0.008;2022-07-17T09:33:18;98550.06;;;32.63;26.65
47280;BME280;34064;44.942;0.008;2022-07-17T09:35:55;98547.66;;;32.77;26.50
47280;BME280;34064;44.942;0.008;2022-07-17T09:38:27;98549.63;;;32.92;26.52
47280;BME280;34064;44.942;0.008;2022-07-17T09:43:42;98541.97;;;33.31;25.69
47280;BME280;34064;44.942;0.008;2022-07-17T09:46:22;98532.41;;;33.38;25.80
47280;BME280;34064;44.942;0.008;2022-07-17T09:48:53;98526.63;;;33.50;25.28
47280;BME280;34064;44.942;0.008;2022-07-17T09:51:23;98522.19;;;33.59;25.49
47280;BME280;34064;44.942;0.008;2022-07-17T09:53:53;98525.50;;;33.82;25.16
47280;BME280;34064;44.942;0.008;2022-07-17T09:56:21;98516.13;;;34.04;24.35
47280;BME280;34064;44.942;0.008;2022-07-17T09:58:56;98522.16;;;34.11;24.19
47280;BME280;34064;44.942;0.008;2022-07-17T10:01:25;98518.88;;;34.14;23.88
47280;BME280;34064;44.942;0.008;2022-07-17T10:03:52;98519.94;;;34.24;23.61
47280;BME280;34064;44.942;0.008;2022-07-17T10:06:21;98517.69;;;34.31;23.41
47280;BME280;34064;44.942;0.008;2022-07-17T10:08:48;98508.84;;;34.49;23.24
47280;BME280;34064;44.942;0.008;2022-07-17T10:11:14;98503.28;;;34.60;23.22
47280;BME280;34064;44.942;0.008;2022-07-17T10:13:43;98495.72;;;34.81;22.80
47280;BME280;34064;44.942;0.008;2022-07-17T10:16:11;98502.00;;;34.97;22.67
47280;BME280;34064;44.942;0.008;2022-07-17T10:18:46;98491.09;;;35.16;22.41
47280;BME280;34064;44.942;0.008;2022-07-17T10:21:14;98489.59;;;35.29;22.13
47280;BME280;34064;44.942;0.008;2022-07-17T10:23:43;98490.63;;;35.38;22.47
47280;BME280;34064;44.942;0.008;2022-07-17T10:26:13;98487.88;;;35.43;22.34
47280;BME280;34064;44.942;0.008;2022-07-17T10:28:40;98486.03;;;35.63;22.43
47280;BME280;34064;44.942;0.008;2022-07-17T10:31:07;98486.97;;;35.78;22.22
47280;BME280;34064;44.942;0.008;2022-07-17T10:33:33;98487.81;;;35.78;22.03
47280;BME280;34064;44.942;0.008;2022-07-17T10:36:00;98489.72;;;35.83;22.09
47280;BME280;34064;44.942;0.008;2022-07-17T10:38:27;98478.59;;;35.93;21.64
47280;BME280;34064;44.942;0.008;2022-07-17T10:41:02;98478.31;;;36.14;21.97
47280;BME280;34064;44.942;0.008;2022-07-17T10:43:43;98470.91;;;36.33;21.43
47280;BME280;34064;44.942;0.008;2022-07-17T10:46:10;98456.09;;;36.48;21.60
47280;BME280;34064;44.942;0.008;2022-07-17T10:48:38;98457.28;;;36.61;21.42
47280;BME280;34064;44.942;0.008;2022-07-17T10:51:05;98461.13;;;36.65;20.20
47280;BME280;34064;44.942;0.008;2022-07-17T10:53:34;98462.22;;;36.64;20.49
47280;BME280;34064;44.942;0.008;2022-07-17T10:56:04;98462.19;;;36.69;20.28
47280;BME280;34064;44.942;0.008;2022-07-17T10:58:36;98456.94;;;36.87;20.10
47280;BME280;34064;44.942;0.008;2022-07-17T11:01:31;98457.84;;;37.02;19.99
47280;BME280;34064;44.942;0.008;2022-07-17T11:03:59;98454.38;;;37.10;19.85
47280;BME280;34064;44.942;0.008;2022-07-17T11:06:35;98451.16;;;37.22;20.00
47280;BME280;34064;44.942;0.008;2022-07-17T11:09:06;98441.31;;;37.29;19.67
47280;BME280;34064;44.942;0.008;2022-07-17T11:11:50;98448.25;;;37.46;18.89
47280;BME280;34064;44.942;0.008;2022-07-17T11:14:23;98439.06;;;37.65;19.01
47280;BME280;34064;44.942;0.008;2022-07-17T11:16:51;98436.09;;;37.75;18.00
47280;BME280;34064;44.942;0.008;2022-07-17T11:19:25;98432.41;;;37.80;17.89
47280;BME280;34064;44.942;0.008;2022-07-17T11:21:53;98442.31;;;37.86;17.72
47280;BME280;34064;44.942;0.008;2022-07-17T11:24:20;98430.81;;;37.92;17.66
47280;BME280;34064;44.942;0.008;2022-07-17T11:26:49;98433.47;;;37.98;17.80
47280;BME280;34064;44.942;0.008;2022-07-17T11:29:16;98433.88;;;38.05;18.03
47280;BME280;34064;44.942;0.008;2022-07-17T11:31:43;98426.38;;;38.19;18.02
47280;BME280;34064;44.942;0.008;2022-07-17T11:34:10;98427.19;;;38.34;17.66
47280;BME280;34064;44.942;0.008;2022-07-17T11:36:44;98421.94;;;38.46;17.40
47280;BME280;34064;44.942;0.008;2022-07-17T11:39:16;98427.38;;;38.51;17.54
47280;BME280;34064;44.942;0.008;2022-07-17T11:41:52;98421.06;;;38.60;17.40
47280;BME280;34064;44.942;0.008;2022-07-17T11:44:21;98423.53;;;38.61;16.74
47280;BME280;34064;44.942;0.008;2022-07-17T11:46:49;98416.75;;;38.67;17.08
47280;BME280;34064;44.942;0.008;2022-07-17T11:49:27;98420.31;;;38.82;16.69
47280;BME280;34064;44.942;0.008;2022-07-17T11:51:56;98413.88;;;38.95;16.53
47280;BME280;34064;44.942;0.008;2022-07-17T11:54:23;98415.34;;;38.93;16.34
47280;BME280;34064;44.942;0.008;2022-07-17T11:56:55;98413.56;;;38.97;15.22
47280;BME280;34064;44.942;0.008;2022-07-17T11:59:31;98412.31;;;39.03;15.28
47280;BME280;34064;44.942;0.008;2022-07-17T12:02:10;98407.97;;;39.11;14.90
47280;BME280;34064;44.942;0.008;2022-07-17T12:07:14;98393.47;;;39.45;15.41
47280;BME280;34064;44.942;0.008;2022-07-17T12:09:41;98377.03;;;39.58;14.04
47280;BME280;34064;44.942;0.008;2022-07-17T12:12:22;98384.56;;;39.57;13.79
47280;BME280;34064;44.942;0.008;2022-07-17T12:14:53;98388.47;;;39.65;13.48
47280;BME280;34064;44.942;0.008;2022-07-17T12:17:20;98391.59;;;39.63;13.67
47280;BME280;34064;44.942;0.008;2022-07-17T12:19:47;98374.19;;;39.81;14.04
47280;BME280;34064;44.942;0.008;2022-07-17T12:22:14;98367.50;;;39.90;14.27
47280;BME280;34064;44.942;0.008;2022-07-17T12:24:43;98379.50;;;40.08;13.32
47280;BME280;34064;44.942;0.008;2022-07-17T12:27:12;98364.16;;;40.20;11.96
47280;BME280;34064;44.942;0.008;2022-07-17T12:29:42;98369.41;;;40.30;11.75
47280;BME280;34064;44.942;0.008;2022-07-17T12:32:12;98343.75;;;40.60;11.68
47280;BME280;34064;44.942;0.008;2022-07-17T12:34:47;98354.69;;;40.56;12.17
47280;BME280;34064;44.942;0.008;2022-07-17T12:37:16;98338.84;;;40.65;11.92
47280;BME280;34064;44.942;0.008;2022-07-17T12:39:44;98341.59;;;40.83;11.21
47280;BME280;34064;44.942;0.008;2022-07-17T12:42:11;98338.47;;;40.93;11.09
47280;BME280;34064;44.942;0.008;2022-07-17T12:44:38;98334.84;;;40.93;11.30
47280;BME280;34064;44.942;0.008;2022-07-17T12:47:04;98328.13;;;41.03;11.38
47280;BME280;34064;44.942;0.008;2022-07-17T12:49:31;98326.81;;;41.09;11.78
47280;BME280;34064;44.942;0.008;2022-07-17T12:51:57;98328.25;;;41.15;11.89
47280;BME280;34064;44.942;0.008;2022-07-17T12:54:24;98319.56;;;41.25;11.38
47280;BME280;34064;44.942;0.008;2022-07-17T12:56:50;98324.09;;;41.39;11.54
47280;BME280;34064;44.942;0.008;2022-07-17T12:59:16;98316.19;;;41.50;10.67
47280;BME280;34064;44.942;0.008;2022-07-17T13:01:43;98303.66;;;41.65;10.54
47280;BME280;34064;44.942;0.008;2022-07-17T13:04:11;98315.41;;;41.79;10.35
47280;BME280;34064;44.942;0.008;2022-07-17T13:06:38;98318.03;;;41.75;10.60
47280;BME280;34064;44.942;0.008;2022-07-17T13:09:04;98309.81;;;41.79;11.53
47280;BME280;34064;44.942;0.008;2022-07-17T13:11:31;98315.00;;;41.89;11.69